X  Sluiten METAR luchtvaart weer gegevens      EHAM Amsterdam Airport Schiphol
Temperatuur
3°C Temperatuur
3°C Dauwpunt
100% Vochtigheid



Wind
3 KM/U
2 MPH
1 M/S
2 KTS



310°
NW
Huidig weer

Shallow Mist Shallow Mist
Luchtdruk 1037.91 (hPa) - 30.65 (inHg)
Zicht 5.6 (mijl) - 9 (km)
Vliegveld
Vliegveld code EHAM

Locatie : Amsterdam Airport Schiphol
Afstand: 2 (km)

Metar:
EHAM 262225Z 31002KT 9000 MIFG NSC 03/03 Q1038 BECMG 7000

Tijd: 26-02-2021 23:25 CET